Time;durP1;ratioP1;P1;durP2;ratioP2;P2;SDS_P1;SDS_P2;PMS_P1;PMS_P2;Temp;Humidity;BMP_temperature;BMP_pressure;BME280_temperature;BME280_humidity;BME280_pressure;Samples;Min_cycle;Max_cycle;Signal;HPM_P1;HPM_P2
2023/09/28 00:00:37;;;;;;;;;;;;;;;18.57;86.44;101255.06;4920292;29;20025;-96
2023/09/28 00:03:07;;;;;;;;;;;;;;;18.56;86.76;101269.16;4917842;29;19915;-96
2023/09/28 00:05:32;;;;;;;;;;;;;;;18.54;86.43;101262.16;4920784;29;19978;-96
2023/09/28 00:08:01;;;;;;;;;;;;;;;18.55;86.32;101274.44;4919933;29;19975;-96
2023/09/28 00:10:27;;;;;;;;;;;;;;;18.54;86.45;101267.41;4920632;29;20002;-96
2023/09/28 00:12:59;;;;;;;;;;;;;;;18.51;86.56;101260.38;4919123;29;19961;-96
2023/09/28 00:15:25;;;;;;;;;;;;;;;18.49;86.60;101262.13;4933586;29;20001;-96
2023/09/28 00:17:54;;;;;;;;;;;;;;;18.48;86.47;101273.59;4924241;29;19954;-96
2023/09/28 00:20:22;;;;;;;;;;;;;;;18.46;86.42;101275.34;4922468;29;19915;-96
2023/09/28 00:22:49;;;;;;;;;;;;;;;18.46;86.59;101280.63;4921936;29;20376;-96
2023/09/28 00:25:19;;;;;;;;;;;;;;;18.45;86.70;101278.88;4922198;29;19915;-96
2023/09/28 00:27:45;;;;;;;;;;;;;;;18.41;86.66;101282.41;4924025;29;19970;-96
2023/09/28 00:30:18;;;;;;;;;;;;;;;18.41;86.79;101287.69;4921468;29;19919;-96
2023/09/28 00:32:47;;;;;;;;;;;;;;;18.38;86.67;101291.19;4937505;29;19922;-96
2023/09/28 00:35:20;;;;;;;;;;;;;;;18.36;87.21;101284.16;4938096;29;19919;-96
2023/09/28 00:37:57;;;;;;;;;;;;;;;18.34;87.22;101286.78;4938161;29;19942;-96
2023/09/28 00:40:31;;;;;;;;;;;;;;;18.33;87.37;101292.06;4938231;29;19950;-96
2023/09/28 00:43:00;;;;;;;;;;;;;;;18.32;87.37;101292.94;4938422;29;20364;-96
2023/09/28 00:45:26;;;;;;;;;;;;;;;18.27;87.10;101300.00;4937010;29;19919;-96
2023/09/28 00:48:02;;;;;;;;;;;;;;;18.21;87.37;101308.81;4938660;29;20424;-96
2023/09/28 00:50:29;;;;;;;;;;;;;;;18.15;87.65;101314.09;4937498;29;19915;-96
2023/09/28 00:53:02;;;;;;;;;;;;;;;18.14;87.95;101307.03;4937921;29;20451;-96
2023/09/28 00:55:29;;;;;;;;;;;;;;;18.15;87.83;101308.81;4937600;29;19957;-96
2023/09/28 00:57:57;;;;;;;;;;;;;;;18.14;88.21;101301.78;4937553;29;19915;-96
2023/09/28 01:00:29;;;;;;;;;;;;;;;18.14;88.42;101300.00;4937996;29;19978;-96
2023/09/28 01:02:56;;;;;;;;;;;;;;;18.14;88.57;101294.72;4936963;29;20017;-96
2023/09/28 01:05:33;;;;;;;;;;;;;;;18.14;88.29;101286.81;4938314;29;19918;-96
2023/09/28 01:08:14;;;;;;;;;;;;;;;18.13;88.89;101287.69;4936886;29;19923;-96
2023/09/28 01:10:43;;;;;;;;;;;;;;;18.12;88.77;101288.59;4937469;29;19918;-96
2023/09/28 01:13:33;;;;;;;;;;;;;;;18.11;88.41;101300.00;4938061;29;19907;-96
2023/09/28 01:15:58;;;;;;;;;;;;;;;18.09;89.31;101304.41;4937998;29;19937;-96
2023/09/28 01:18:23;;;;;;;;;;;;;;;18.07;88.86;101298.25;4938091;29;19987;-96
2023/09/28 01:20:54;;;;;;;;;;;;;;;18.05;89.58;101298.25;4940733;29;19915;-96
2023/09/28 01:23:23;;;;;;;;;;;;;;;18.06;89.68;101307.03;4940976;29;19914;-96
2023/09/28 01:25:49;;;;;;;;;;;;;;;18.03;89.39;101299.13;4940202;29;19925;-96
2023/09/28 01:28:32;;;;;;;;;;;;;;;18.02;89.43;101300.88;4941432;29;19907;-96
2023/09/28 01:31:01;;;;;;;;;;;;;;;18.01;89.42;101308.78;4941489;29;19915;-96
2023/09/28 01:33:30;;;;;;;;;;;;;;;17.99;89.97;101300.03;4925624;29;19942;-96
2023/09/28 01:35:57;;;;;;;;;;;;;;;17.96;90.29;101297.34;4922555;29;20517;-96
2023/09/28 01:38:31;;;;;;;;;;;;;;;17.95;90.27;101301.75;4922437;29;19919;-96
2023/09/28 01:41:00;;;;;;;;;;;;;;;17.94;90.80;101301.75;4922570;29;19938;-96
2023/09/28 01:43:35;;;;;;;;;;;;;;;17.93;90.87;101306.16;4921432;29;19938;-96
2023/09/28 01:46:03;;;;;;;;;;;;;;;17.90;90.71;101307.03;4921256;29;20400;-96
2023/09/28 01:48:28;;;;;;;;;;;;;;;17.88;90.50;101314.00;4938629;29;19974;-96
2023/09/28 01:50:54;;;;;;;;;;;;;;;17.85;90.44;101311.38;4940955;29;19919;-96
2023/09/28 01:53:19;;;;;;;;;;;;;;;17.84;91.27;101314.00;4940290;29;19919;-96
2023/09/28 01:55:46;;;;;;;;;;;;;;;17.82;91.03;101319.28;4940259;29;19977;-96
2023/09/28 01:58:12;;;;;;;;;;;;;;;17.79;91.34;101318.41;4941322;29;19922;-96
2023/09/28 02:00:44;;;;;;;;;;;;;;;17.76;91.47;101311.38;4941403;29;19944;-96
2023/09/28 02:03:15;;;;;;;;;;;;;;;17.73;92.05;101320.16;4940532;29;19915;-96
2023/09/28 02:05:46;;;;;;;;;;;;;;;17.71;91.25;101321.03;4926014;29;19937;-96
2023/09/28 02:08:11;;;;;;;;;;;;;;;17.69;92.54;101333.34;4923833;29;19923;-96
2023/09/28 02:10:40;;;;;;;;;;;;;;;17.66;91.72;101334.19;4923781;29;19918;-96
2023/09/28 02:13:05;;;;;;;;;;;;;;;17.64;92.55;101341.25;4925650;29;20010;-96
2023/09/28 02:15:34;;;;;;;;;;;;;;;17.62;92.03;101342.09;4924323;29;20198;-96
2023/09/28 02:18:03;;;;;;;;;;;;;;;17.60;92.87;101341.19;4923828;29;20347;-96
2023/09/28 02:20:30;;;;;;;;;;;;;;;17.60;92.94;101341.19;4924709;29;19922;-96
2023/09/28 02:23:01;;;;;;;;;;;;;;;17.56;92.74;101335.06;4923934;29;19970;-96
2023/09/28 02:25:32;;;;;;;;;;;;;;;17.54;93.26;101335.06;4923704;29;19954;-96
2023/09/28 02:27:58;;;;;;;;;;;;;;;17.52;92.55;101334.19;4923724;29;19918;-96
2023/09/28 02:30:24;;;;;;;;;;;;;;;17.50;92.34;101335.91;4924303;29;19937;-96
2023/09/28 02:32:50;;;;;;;;;;;;;;;17.47;92.58;101345.59;4923620;29;19915;-96
2023/09/28 02:35:16;;;;;;;;;;;;;;;17.41;91.70;101333.25;4939216;29;19929;-96
2023/09/28 02:37:53;;;;;;;;;;;;;;;17.34;91.78;101342.88;4941583;29;20368;-96
2023/09/28 02:40:19;;;;;;;;;;;;;;;17.28;94.31;101339.34;4941130;29;20292;-96
2023/09/28 02:42:48;;;;;;;;;;;;;;;17.26;93.11;101346.38;4939402;29;19915;-96
2023/09/28 02:45:15;;;;;;;;;;;;;;;17.24;94.63;101356.03;4925662;29;19955;-96
2023/09/28 02:47:50;;;;;;;;;;;;;;;17.23;94.47;101346.38;4940503;29;19918;-96
2023/09/28 02:50:19;;;;;;;;;;;;;;;17.18;94.42;101343.72;4925335;29;19914;-96
2023/09/28 02:52:52;;;;;;;;;;;;;;;17.16;94.24;101353.34;4924255;29;19921;-96
2023/09/28 02:55:17;;;;;;;;;;;;;;;17.13;95.47;101353.34;4923276;29;19926;-96
2023/09/28 02:57:43;;;;;;;;;;;;;;;17.10;94.98;101348.06;4923409;29;20300;-96
2023/09/28 03:02:47;;;;;;;;;;;;;;;17.06;95.86;101349.81;4932692;29;20388;-96
2023/09/28 03:05:16;;;;;;;;;;;;;;;17.05;94.52;101353.31;4921402;29;19916;-96
2023/09/28 03:07:42;;;;;;;;;;;;;;;17.02;95.55;101355.94;4921797;29;19974;-96
2023/09/28 03:10:31;;;;;;;;;;;;;;;17.00;96.41;101355.03;4920107;29;19915;-96
2023/09/28 03:12:57;;;;;;;;;;;;;;;16.96;95.23;101371.66;4903834;29;19961;-96
2023/09/28 03:15:22;;;;;;;;;;;;;;;16.92;97.05;101370.78;4918229;29;19950;-96
2023/09/28 03:17:57;;;;;;;;;;;;;;;16.91;97.68;101374.28;4925601;29;19970;-96
2023/09/28 03:20:24;;;;;;;;;;;;;;;16.89;95.91;101377.78;4938168;29;19914;-96
2023/09/28 03:22:52;;;;;;;;;;;;;;;16.86;95.67;101376.84;4938447;29;20270;-96
2023/09/28 03:25:23;;;;;;;;;;;;;;;16.85;96.08;101384.75;4938218;29;19922;-96
2023/09/28 03:27:53;;;;;;;;;;;;;;;16.81;96.82;101377.69;4939180;29;19997;-96
2023/09/28 03:30:20;;;;;;;;;;;;;;;16.77;96.21;101376.81;4939247;29;19914;-96
2023/09/28 03:32:49;;;;;;;;;;;;;;;16.77;96.43;101386.44;4938878;29;19915;-96
2023/09/28 03:35:16;;;;;;;;;;;;;;;16.74;95.81;101391.69;4939646;29;19926;-96
2023/09/28 03:37:45;;;;;;;;;;;;;;;16.69;96.44;101395.16;4939364;29;19918;-96
2023/09/28 03:40:13;;;;;;;;;;;;;;;16.66;97.67;101395.16;4938181;29;19914;-96
2023/09/28 03:42:42;;;;;;;;;;;;;;;16.66;96.46;101396.91;4938381;29;19915;-96
2023/09/28 03:45:13;;;;;;;;;;;;;;;16.64;96.60;101411.78;4937681;29;19922;-96
2023/09/28 03:47:39;;;;;;;;;;;;;;;16.61;97.09;101406.50;4930949;29;19925;-96
2023/09/28 03:50:12;;;;;;;;;;;;;;;16.58;98.91;101420.50;4918857;29;19946;-96
2023/09/28 03:52:38;;;;;;;;;;;;;;;16.58;99.04;101422.25;4918907;29;19922;-96
2023/09/28 03:55:11;;;;;;;;;;;;;;;16.56;97.97;101424.88;4919366;29;19920;-96
2023/09/28 03:57:39;;;;;;;;;;;;;;;16.56;97.77;101413.50;4919181;29;19998;-96
2023/09/28 04:00:13;;;;;;;;;;;;;;;16.51;99.30;101410.81;4919297;29;19921;-96
2023/09/28 04:02:50;;;;;;;;;;;;;;;16.47;97.74;101420.44;4929070;29;20376;-96
2023/09/28 04:05:18;;;;;;;;;;;;;;;16.46;97.76;101420.41;4922604;29;19919;-96
2023/09/28 04:07:46;;;;;;;;;;;;;;;16.44;100.00;101423.03;4938423;29;20380;-96
2023/09/28 04:10:14;;;;;;;;;;;;;;;16.44;98.46;101422.16;4937916;29;20009;-96
2023/09/28 04:12:40;;;;;;;;;;;;;;;16.43;99.94;101428.28;4938430;29;19962;-96
2023/09/28 04:15:08;;;;;;;;;;;;;;;16.42;98.48;101427.38;4930298;29;19959;-96
2023/09/28 04:17:34;;;;;;;;;;;;;;;16.40;98.10;101421.25;4904244;29;19966;-96
2023/09/28 04:20:04;;;;;;;;;;;;;;;16.39;98.82;101426.50;4919977;29;19926;-96
2023/09/28 04:22:29;;;;;;;;;;;;;;;16.38;98.16;101425.63;4919491;29;19915;-96
2023/09/28 04:24:55;;;;;;;;;;;;;;;16.36;98.78;101426.47;4919153;29;19915;-96
2023/09/28 04:27:28;;;;;;;;;;;;;;;16.34;98.36;101422.06;4918146;29;19922;-96
2023/09/28 04:29:54;;;;;;;;;;;;;;;16.31;100.00;101419.41;4934917;29;20110;-96
2023/09/28 04:32:20;;;;;;;;;;;;;;;16.31;99.19;101423.81;4938307;29;19943;-96
2023/09/28 04:34:48;;;;;;;;;;;;;;;16.31;99.55;101424.69;4938600;29;19919;-96
2023/09/28 04:37:16;;;;;;;;;;;;;;;16.29;99.24;101426.41;4938499;29;19915;-96
2023/09/28 04:39:42;;;;;;;;;;;;;;;16.27;98.97;101429.91;4937466;29;19918;-96
2023/09/28 04:42:07;;;;;;;;;;;;;;;16.24;98.80;101430.75;4937816;29;19915;-96
2023/09/28 04:44:35;;;;;;;;;;;;;;;16.21;99.52;101432.47;4937732;29;19973;-96
2023/09/28 04:47:01;;;;;;;;;;;;;;;16.20;99.16;101441.22;4938427;29;19942;-96
2023/09/28 04:49:28;;;;;;;;;;;;;;;16.17;99.64;101437.69;4938560;29;19954;-96
2023/09/28 04:51:55;;;;;;;;;;;;;;;16.13;98.86;101453.41;4937572;29;19950;-96
2023/09/28 04:54:20;;;;;;;;;;;;;;;16.07;99.12;101448.97;4940386;29;19918;-96
2023/09/28 04:56:49;;;;;;;;;;;;;;;16.02;100.00;101440.16;4941703;29;19939;-96
2023/09/28 04:59:14;;;;;;;;;;;;;;;15.99;100.00;101437.50;4941171;29;19915;-96
2023/09/28 05:01:42;;;;;;;;;;;;;;;15.97;100.00;101450.63;4940746;29;19921;-96
2023/09/28 05:04:12;;;;;;;;;;;;;;;15.94;100.00;101461.09;4940500;29;19925;-96
2023/09/28 05:06:41;;;;;;;;;;;;;;;15.91;99.99;101473.34;4935508;29;19927;-96
2023/09/28 05:09:07;;;;;;;;;;;;;;;15.86;99.63;101478.53;4922310;29;19969;-96
2023/09/28 05:11:44;;;;;;;;;;;;;;;15.84;99.37;101487.25;4921716;29;20058;-96
2023/09/28 05:14:19;;;;;;;;;;;;;;;15.82;100.00;101477.59;4921097;29;20400;-96
2023/09/28 05:16:45;;;;;;;;;;;;;;;15.80;100.00;101481.97;4921874;29;19922;-96
2023/09/28 05:19:10;;;;;;;;;;;;;;;15.78;100.00;101490.66;4921611;29;19915;-96
2023/09/28 05:21:35;;;;;;;;;;;;;;;15.78;100.00;101494.19;4920627;29;19958;-96
2023/09/28 05:24:01;;;;;;;;;;;;;;;15.76;100.00;101497.66;4920618;29;19915;-96
2023/09/28 05:26:31;;;;;;;;;;;;;;;15.76;100.00;101493.28;4920141;29;19997;-96
2023/09/28 05:28:59;;;;;;;;;;;;;;;15.75;99.79;101507.25;4920526;29;19915;-96
2023/09/28 05:31:25;;;;;;;;;;;;;;;15.73;99.65;101519.50;4920161;29;19915;-96
2023/09/28 05:33:57;;;;;;;;;;;;;;;15.71;99.60;101521.22;4920603;29;19919;-96
2023/09/28 05:36:28;;;;;;;;;;;;;;;15.70;99.65;101519.47;4920728;29;19943;-96
2023/09/28 05:38:56;;;;;;;;;;;;;;;15.66;99.38;101522.91;4920473;29;20017;-96
2023/09/28 05:41:23;;;;;;;;;;;;;;;15.62;99.64;101521.97;4919804;29;20452;-96
2023/09/28 05:44:07;;;;;;;;;;;;;;;15.60;100.00;101523.72;4903412;29;19920;-96
2023/09/28 05:46:33;;;;;;;;;;;;;;;15.59;99.70;101523.69;4902421;29;19919;-96
2023/09/28 05:48:58;;;;;;;;;;;;;;;15.58;100.00;101535.97;4911777;29;19931;-96
2023/09/28 05:51:27;;;;;;;;;;;;;;;15.57;99.87;101535.91;4903393;29;20025;-96
2023/09/28 05:53:53;;;;;;;;;;;;;;;15.53;100.00;101532.38;4904186;29;20559;-96
2023/09/28 05:56:21;;;;;;;;;;;;;;;15.53;99.59;101539.38;4904122;29;19915;-96
2023/09/28 05:58:47;;;;;;;;;;;;;;;15.52;99.79;101546.34;4904300;29;19915;-96
2023/09/28 06:01:13;;;;;;;;;;;;;;;15.48;99.71;101558.56;4903945;29;19915;-96
2023/09/28 06:03:43;;;;;;;;;;;;;;;15.40;99.82;101552.31;4900462;29;19922;-96
2023/09/28 06:06:15;;;;;;;;;;;;;;;15.36;99.80;101555.75;4901063;29;20767;-96
2023/09/28 06:08:41;;;;;;;;;;;;;;;15.33;99.59;101566.22;4932111;29;19923;-96
2023/09/28 06:11:15;;;;;;;;;;;;;;;15.30;100.00;101558.28;4938400;29;19926;-96
2023/09/28 06:13:46;;;;;;;;;;;;;;;15.31;100.00;101546.94;4939135;29;19993;-96
2023/09/28 06:16:12;;;;;;;;;;;;;;;15.34;100.00;101540.81;4938103;29;19915;-96
2023/09/28 06:18:43;;;;;;;;;;;;;;;15.34;100.00;101544.34;4938098;29;19950;-96
2023/09/28 06:21:09;;;;;;;;;;;;;;;15.34;100.00;101546.06;4938160;29;19922;-96
2023/09/28 06:23:37;;;;;;;;;;;;;;;15.33;100.00;101554.84;4938576;29;19915;-96
2023/09/28 06:26:05;;;;;;;;;;;;;;;15.33;100.00;101565.34;4938342;29;20363;-96
2023/09/28 06:28:30;;;;;;;;;;;;;;;15.30;100.00;101560.91;4937145;29;19918;-96
2023/09/28 06:30:56;;;;;;;;;;;;;;;15.30;100.00;101571.41;4937330;29;19926;-96
2023/09/28 06:33:27;;;;;;;;;;;;;;;15.28;100.00;101581.03;4935897;29;20361;-96
2023/09/28 06:35:54;;;;;;;;;;;;;;;15.27;99.87;101581.88;4937649;29;20009;-96
2023/09/28 06:38:19;;;;;;;;;;;;;;;15.24;100.00;101579.22;4938534;29;19974;-96
2023/09/28 06:40:55;;;;;;;;;;;;;;;15.24;100.00;101584.44;4939504;29;19915;-96
2023/09/28 06:43:25;;;;;;;;;;;;;;;15.22;100.00;101581.81;4938487;29;23523;-96
2023/09/28 06:45:59;;;;;;;;;;;;;;;15.24;100.00;101584.44;4937752;29;19915;-96
2023/09/28 06:48:26;;;;;;;;;;;;;;;15.22;100.00;101583.53;4937466;29;19914;-96
2023/09/28 06:50:59;;;;;;;;;;;;;;;15.24;100.00;101579.22;4937362;29;19918;-96
2023/09/28 06:53:27;;;;;;;;;;;;;;;15.26;100.00;101595.84;4938537;29;19914;-96
2023/09/28 06:55:59;;;;;;;;;;;;;;;15.27;100.00;101608.13;4937881;29;19914;-96
2023/09/28 06:58:27;;;;;;;;;;;;;;;15.29;100.00;101611.66;4937870;29;19914;-96
2023/09/28 07:00:58;;;;;;;;;;;;;;;15.30;100.00;101609.03;4937614;29;19923;-96
2023/09/28 07:03:26;;;;;;;;;;;;;;;15.34;100.00;101607.38;4938473;29;19918;-96
2023/09/28 07:05:55;;;;;;;;;;;;;;;15.38;100.00;101611.81;4937996;29;20373;-96
2023/09/28 07:08:23;;;;;;;;;;;;;;;15.42;100.00;101625.88;4937712;29;19923;-96
2023/09/28 07:10:49;;;;;;;;;;;;;;;15.45;100.00;101623.28;4939013;29;19942;-96
2023/09/28 07:13:17;;;;;;;;;;;;;;;15.51;100.00;101619.88;4937804;29;19922;-96
2023/09/28 07:15:45;;;;;;;;;;;;;;;15.55;100.00;101621.69;4937084;29;19914;-96
2023/09/28 07:18:10;;;;;;;;;;;;;;;15.61;100.00;101606.94;4936756;29;19941;-96
2023/09/28 07:20:42;;;;;;;;;;;;;;;15.66;100.00;101604.38;4938050;29;20357;-96
2023/09/28 07:23:07;;;;;;;;;;;;;;;15.72;100.00;101622.84;4937080;29;19922;-96
2023/09/28 07:25:35;;;;;;;;;;;;;;;15.77;99.42;101613.28;4937518;29;19915;-96
2023/09/28 07:28:01;;;;;;;;;;;;;;;15.81;99.76;101606.34;4937453;29;19915;-96
2023/09/28 07:30:32;;;;;;;;;;;;;;;15.85;99.38;101604.66;4937651;29;19919;-96
2023/09/28 07:32:57;;;;;;;;;;;;;;;15.90;99.70;101613.47;4921940;29;20060;-96
2023/09/28 07:35:25;;;;;;;;;;;;;;;15.88;99.51;101621.34;4921449;29;20012;-96
2023/09/28 07:37:51;;;;;;;;;;;;;;;15.88;99.48;101641.50;4921786;29;19915;-96
2023/09/28 07:40:24;;;;;;;;;;;;;;;15.89;100.00;101640.63;4921956;29;20408;-96
2023/09/28 07:42:53;;;;;;;;;;;;;;;15.89;100.00;101630.09;4921831;29;19925;-96
2023/09/28 07:45:18;;;;;;;;;;;;;;;15.88;99.54;101634.47;4921094;29;19921;-96
2023/09/28 07:47:44;;;;;;;;;;;;;;;15.91;99.49;101646.78;4921507;29;19914;-96
2023/09/28 07:50:14;;;;;;;;;;;;;;;15.98;99.75;101648.66;4921064;29;19976;-96
2023/09/28 07:52:42;;;;;;;;;;;;;;;16.17;99.35;101645.41;4922498;29;19915;-96
2023/09/28 07:55:10;;;;;;;;;;;;;;;16.10;99.12;101645.31;4922150;29;20018;-96
2023/09/28 07:57:39;;;;;;;;;;;;;;;16.13;99.30;101641.00;4921783;29;19966;-96
2023/09/28 08:00:08;;;;;;;;;;;;;;;16.19;99.63;101648.03;4923282;29;19921;-96
2023/09/28 08:02:40;;;;;;;;;;;;;;;16.28;99.19;101649.91;4923538;29;20062;-96
2023/09/28 08:05:08;;;;;;;;;;;;;;;16.30;99.16;101654.34;4922729;29;19982;-96
2023/09/28 08:07:36;;;;;;;;;;;;;;;16.34;98.46;101666.66;4920323;29;20304;-96
2023/09/28 08:10:01;;;;;;;;;;;;;;;16.53;97.62;101666.91;4920999;29;19919;-96
2023/09/28 08:12:27;;;;;;;;;;;;;;;16.52;97.61;101665.13;4936902;29;20004;-96
2023/09/28 08:14:52;;;;;;;;;;;;;;;16.60;97.67;101666.13;4937391;29;19974;-96
2023/09/28 08:17:22;;;;;;;;;;;;;;;16.60;98.04;101674.00;4937034;29;20288;-96
2023/09/28 08:19:48;;;;;;;;;;;;;;;16.81;96.62;101662.81;4937699;29;19915;-96
2023/09/28 08:22:13;;;;;;;;;;;;;;;16.73;96.74;101663.59;4937451;29;19922;-96
2023/09/28 08:24:54;;;;;;;;;;;;;;;16.69;96.76;101663.56;4937285;29;19922;-96
2023/09/28 08:27:25;;;;;;;;;;;;;;;16.84;95.52;101660.25;4938490;29;19923;-96
2023/09/28 08:29:51;;;;;;;;;;;;;;;16.81;96.30;101668.09;4940010;29;19922;-96
2023/09/28 08:32:21;;;;;;;;;;;;;;;17.09;93.14;101673.69;4943330;29;20014;-96
2023/09/28 08:34:47;;;;;;;;;;;;;;;16.96;93.78;101671.78;4941482;29;19926;-96
2023/09/28 08:37:19;;;;;;;;;;;;;;;17.11;92.86;101681.63;4942735;29;19914;-96
2023/09/28 08:39:49;;;;;;;;;;;;;;;17.02;93.11;101687.66;4940818;29;19915;-96
2023/09/28 08:42:15;;;;;;;;;;;;;;;17.15;92.28;101684.28;4907081;29;19915;-96
2023/09/28 08:44:44;;;;;;;;;;;;;;;17.22;91.25;101690.50;4922620;29;19919;-96
2023/09/28 08:47:16;;;;;;;;;;;;;;;17.26;90.38;101696.69;4924198;29;19915;-96
2023/09/28 08:49:47;;;;;;;;;;;;;;;17.20;90.85;101698.38;4923949;29;19943;-96
2023/09/28 08:52:16;;;;;;;;;;;;;;;17.11;92.65;101700.91;4921724;29;19915;-96
2023/09/28 08:54:41;;;;;;;;;;;;;;;17.20;90.95;101708.91;4923627;29;19931;-96
2023/09/28 08:57:13;;;;;;;;;;;;;;;17.28;89.97;101706.38;4940768;29;20365;-96
2023/09/28 08:59:45;;;;;;;;;;;;;;;17.24;91.49;101715.09;4939692;29;19922;-96
2023/09/28 09:02:14;;;;;;;;;;;;;;;17.31;91.24;101705.53;4923929;29;19930;-96
2023/09/28 09:04:42;;;;;;;;;;;;;;;17.41;90.80;101711.72;4925049;29;19954;-96
2023/09/28 09:07:10;;;;;;;;;;;;;;;17.43;89.30;101715.28;4926964;29;19923;-96
2023/09/28 09:09:41;;;;;;;;;;;;;;;17.38;89.55;101708.22;4925748;29;19915;-96
2023/09/28 09:12:24;;;;;;;;;;;;;;;17.33;90.57;101714.31;4925434;29;19962;-96
2023/09/28 09:15:01;;;;;;;;;;;;;;;17.48;88.97;101724.09;4926679;29;19919;-96
2023/09/28 09:17:33;;;;;;;;;;;;;;;17.49;88.60;101708.28;4943846;29;19915;-96
2023/09/28 09:19:59;;;;;;;;;;;;;;;17.60;86.73;101710.13;4925683;29;19922;-96
2023/09/28 09:22:33;;;;;;;;;;;;;;;17.58;86.28;101714.53;4925101;29;19915;-96
2023/09/28 09:25:02;;;;;;;;;;;;;;;17.49;86.74;101716.19;4920364;29;19911;-96
2023/09/28 09:27:31;;;;;;;;;;;;;;;17.44;87.45;101712.66;4924040;29;19914;-96
2023/09/28 09:29:59;;;;;;;;;;;;;;;17.63;85.77;101712.81;4925574;29;19997;-96
2023/09/28 09:32:28;;;;;;;;;;;;;;;17.60;86.13;101718.03;4924306;29;19918;-96
2023/09/28 09:34:53;;;;;;;;;;;;;;;17.52;87.39;101732.06;4938281;29;19926;-96
2023/09/28 09:37:19;;;;;;;;;;;;;;;17.58;88.12;101725.06;4940973;29;19919;-96
2023/09/28 09:39:45;;;;;;;;;;;;;;;17.62;87.52;101724.22;4939053;29;19911;-96
2023/09/28 09:42:13;;;;;;;;;;;;;;;17.67;87.16;101720.75;4938465;29;20344;-96
2023/09/28 09:44:41;;;;;;;;;;;;;;;17.75;87.36;101720.81;4938802;29;19949;-96
2023/09/28 09:47:07;;;;;;;;;;;;;;;17.87;85.96;101712.13;4939513;29;20403;-96
2023/09/28 09:49:35;;;;;;;;;;;;;;;18.01;84.45;101728.09;4937928;29;19919;-96
2023/09/28 09:52:06;;;;;;;;;;;;;;;18.04;82.83;101725.47;4938964;29;19919;-96
2023/09/28 09:54:36;;;;;;;;;;;;;;;18.07;83.80;101723.75;4939176;29;19919;-96
2023/09/28 09:57:02;;;;;;;;;;;;;;;18.13;83.16;101730.78;4939306;29;19993;-96
2023/09/28 09:59:31;;;;;;;;;;;;;;;18.18;84.60;101734.34;4938717;29;19939;-96
2023/09/28 10:01:58;;;;;;;;;;;;;;;18.35;84.65;101736.19;4938741;29;19915;-96
2023/09/28 10:04:28;;;;;;;;;;;;;;;18.51;84.06;101740.69;4938699;29;19954;-96
2023/09/28 10:07:03;;;;;;;;;;;;;;;18.62;82.13;101729.31;4933126;29;19923;-96
2023/09/28 10:09:32;;;;;;;;;;;;;;;18.47;84.74;101725.72;4919322;29;19970;-96
2023/09/28 10:12:00;;;;;;;;;;;;;;;18.54;83.75;101724.88;4919563;29;20010;-96
2023/09/28 10:14:28;;;;;;;;;;;;;;;18.69;84.08;101716.13;4929469;29;19926;-96
2023/09/28 10:16:54;;;;;;;;;;;;;;;18.94;85.08;101701.31;4939623;29;19958;-96
2023/09/28 10:19:26;;;;;;;;;;;;;;;19.11;84.21;101692.53;4938396;29;20353;-96
2023/09/28 10:21:55;;;;;;;;;;;;;;;19.33;82.80;101692.56;4938823;29;19915;-95
2023/09/28 10:24:24;;;;;;;;;;;;;;;19.40;82.76;101679.34;4938684;29;19926;-96
2023/09/28 10:27:01;;;;;;;;;;;;;;;19.59;82.51;101681.97;4938608;29;19919;-96
2023/09/28 10:29:30;;;;;;;;;;;;;;;19.69;78.51;101682.88;4935560;29;19914;-96
2023/09/28 10:31:57;;;;;;;;;;;;;;;19.72;77.35;101686.38;4918782;29;19915;-96
2023/09/28 10:34:23;;;;;;;;;;;;;;;19.67;77.58;101692.53;4903749;29;19919;-96
2023/09/28 10:37:18;;;;;;;;;;;;;;;19.70;78.48;101693.44;4919614;29;19915;-96
2023/09/28 10:39:46;;;;;;;;;;;;;;;19.89;76.47;101698.75;4917788;29;19925;-96
2023/09/28 10:42:16;;;;;;;;;;;;;;;20.05;76.38;101700.47;4918483;29;20001;-96
2023/09/28 10:44:55;;;;;;;;;;;;;;;20.13;74.06;101703.09;4918828;29;19919;-96
2023/09/28 10:47:24;;;;;;;;;;;;;;;19.98;75.66;101696.06;4918676;29;19937;-96
2023/09/28 10:49:59;;;;;;;;;;;;;;;20.12;71.91;101702.22;4918949;29;20001;-96
2023/09/28 10:52:25;;;;;;;;;;;;;;;20.09;76.00;101698.72;4917583;29;19924;-96
2023/09/28 10:54:56;;;;;;;;;;;;;;;20.25;73.54;101703.06;4918446;29;19927;-96
2023/09/28 10:57:29;;;;;;;;;;;;;;;20.23;74.44;101704.81;4918571;29;19915;-96
2023/09/28 11:00:08;;;;;;;;;;;;;;;20.14;75.13;101705.72;4918220;29;19915;-96
2023/09/28 11:02:37;;;;;;;;;;;;;;;20.09;74.75;101709.28;4918217;29;20381;-96
2023/09/28 11:05:02;;;;;;;;;;;;;;;20.07;77.00;101714.56;4918459;29;19915;-96
2023/09/28 11:07:28;;;;;;;;;;;;;;;20.15;75.83;101707.50;4918908;29;20300;-96
2023/09/28 11:09:54;;;;;;;;;;;;;;;20.18;75.61;101721.63;4921842;29;19915;-96
2023/09/28 11:12:22;;;;;;;;;;;;;;;20.17;75.85;101726.00;4917671;29;19915;-96
2023/09/28 11:14:55;;;;;;;;;;;;;;;20.36;72.55;101734.78;4917501;29;19919;-96
2023/09/28 11:17:26;;;;;;;;;;;;;;;20.30;73.52;101727.75;4917795;29;19923;-96
2023/09/28 11:19:51;;;;;;;;;;;;;;;20.25;72.50;101721.59;4917847;29;20055;-96
2023/09/28 11:22:20;;;;;;;;;;;;;;;20.22;75.29;101718.06;4917856;29;19967;-96
2023/09/28 11:24:50;;;;;;;;;;;;;;;20.31;71.23;101723.34;4918763;29;19962;-96
2023/09/28 11:27:20;;;;;;;;;;;;;;;20.18;74.36;101732.22;4913497;29;19919;-96
2023/09/28 11:29:52;;;;;;;;;;;;;;;20.19;74.27;101716.31;4901761;29;19938;-96
2023/09/28 11:32:18;;;;;;;;;;;;;;;20.15;74.97;101722.50;4901630;29;19994;-96
2023/09/28 11:34:43;;;;;;;;;;;;;;;20.20;75.16;101725.13;4902074;29;20001;-96
2023/09/28 11:37:10;;;;;;;;;;;;;;;20.24;74.29;101724.25;4902008;29;19938;-96
2023/09/28 11:39:38;;;;;;;;;;;;;;;20.12;74.00;101722.50;4901925;29;19915;-96
2023/09/28 11:42:07;;;;;;;;;;;;;;;20.02;75.32;101723.41;4915895;29;19919;-96
2023/09/28 11:44:32;;;;;;;;;;;;;;;20.11;75.92;101723.38;4935680;29;20261;-96
2023/09/28 11:47:03;;;;;;;;;;;;;;;20.25;74.32;101724.25;4936269;29;19962;-96
2023/09/28 11:49:28;;;;;;;;;;;;;;;20.32;73.77;101714.53;4936233;29;20376;-96
2023/09/28 11:51:54;;;;;;;;;;;;;;;20.36;75.15;101721.56;4936038;29;19915;-96
2023/09/28 11:54:20;;;;;;;;;;;;;;;20.62;72.59;101715.28;4935682;29;19944;-96
2023/09/28 11:56:46;;;;;;;;;;;;;;;20.74;71.90;101724.97;4927035;29;20365;-96
2023/09/28 11:59:18;;;;;;;;;;;;;;;20.74;74.40;101717.03;4916889;29;19922;-95
2023/09/28 12:01:52;;;;;;;;;;;;;;;20.87;73.88;101708.16;4916654;29;20419;-96
2023/09/28 12:04:17;;;;;;;;;;;;;;;20.86;72.46;101714.34;4916835;29;19915;-96
2023/09/28 12:06:43;;;;;;;;;;;;;;;20.82;72.86;101702.84;4916877;29;19924;-96
2023/09/28 12:09:11;;;;;;;;;;;;;;;20.85;72.95;101699.31;4916581;29;19978;-96
2023/09/28 12:11:37;;;;;;;;;;;;;;;21.01;74.01;101694.81;4916405;29;19915;-96
2023/09/28 12:14:05;;;;;;;;;;;;;;;21.31;72.51;101692.84;4928287;29;19919;-96
2023/09/28 12:16:30;;;;;;;;;;;;;;;21.51;71.46;101690.09;4916594;29;20005;-96
2023/09/28 12:18:58;;;;;;;;;;;;;;;21.71;70.49;101688.13;4916911;29;19970;-96
2023/09/28 12:21:29;;;;;;;;;;;;;;;21.73;71.55;101685.47;4916796;29;19915;-96
2023/09/28 12:23:55;;;;;;;;;;;;;;;21.59;67.82;101687.34;4916935;29;20003;-96
2023/09/28 12:26:26;;;;;;;;;;;;;;;21.43;70.09;101682.13;4917511;29;20052;-96
2023/09/28 12:28:58;;;;;;;;;;;;;;;21.45;68.89;101690.97;4930871;29;20265;-96
2023/09/28 12:31:26;;;;;;;;;;;;;;;21.55;68.44;101691.78;4919875;29;19967;-96
2023/09/28 12:33:54;;;;;;;;;;;;;;;21.43;68.75;101697.19;4919996;29;19918;-96
2023/09/28 12:36:20;;;;;;;;;;;;;;;21.53;68.64;101685.63;4919530;29;19994;-96
2023/09/28 12:38:50;;;;;;;;;;;;;;;21.62;69.23;101687.31;4920147;29;20072;-96
2023/09/28 12:41:16;;;;;;;;;;;;;;;21.73;69.71;101684.59;4919348;29;19935;-96
2023/09/28 12:43:45;;;;;;;;;;;;;;;21.93;67.26;101672.00;4919525;29;19947;-96
2023/09/28 12:46:13;;;;;;;;;;;;;;;21.95;67.07;101675.50;4919175;29;19941;-96